Arbuckle, CA

6:47 PM PDT on September 18, 2014 (GMT -0700)
Tierra Buena | Change Station
CLOSE
Current Station
Personal Weather Station
Location: Yuba City, CA
Elevation: 59 ft
Nearby Weather Stations

Elev 59 ft 39.15 °N, 121.67 °W | Updated 1 minute ago

Clear
Clear
79.0 °F
Feels Like 77 °F
N
0.0
Wind Variable Wind from SSW
Gusts 0.0 mph

Today
High -- | Low -- °F
--% Chance of Precip.
Yesterday
High -- | Low -- °F
Precip. -- in
6:52 AM 7:11 PM
Waning Crescent, 23% visible
Pressure 29.81 in
Visibility 10.0 miles
Clouds Clear
Heat Index 77 °F
Dew Point 32 °F
Humidity 2%
Rainfall 0.00 in
Snow Depth 0 in , 0 in , 0 in
UV 1 out of 12
Pollen 5.40 out of 12
Air Quality Not available.
Flu Activity Not available.
METAR KMYV 190053Z AUTO 00000KT 10SM CLR 28/13 A2980 RMK AO2 SLP094 T02780128

More Conditions Fewer Conditions

Pressure 29.81 in
Visibility 10.0 miles
Clouds Clear
Heat Index 77 °F
Dew Point 32 °F
Humidity 2%
Rainfall 0.00 in
Snow Depth 0 in , 0 in , 0 in
UV 1 out of 12
Pollen 5.40 out of 12
Air Quality Not available.
Flu Activity Not available.
METAR KMYV 190053Z AUTO 00000KT 10SM CLR 28/13 A2980 RMK AO2 SLP094 T02780128

More Conditions Fewer Conditions

10-Day Weather Forecast

Almanac

Astronomy

Sep. 18, 2014 Rise Set
Actual Time 6:52 AM PDT 7:11 PM PDT
Civil Twilight 6:25 AM PDT 7:38 PM PDT
Nautical Twilight 5:54 AM PDT 8:09 PM PDT
Astronomical Twilight 5:22 AM PDT 8:41 PM PDT
Moon 1:50 AM PDT (9/18) 4:04 PM PDT (9/18)
Length of Visible Light 13h 12m
Length of Day
12h 19m
Tomorrow will be 2m 31s shorter.
Waning Crescent, 23% of the Moon is Illuminated
Today
Waning Crescent
Sep 24
New
Oct 1
First Quarter
Oct 8
Full
Oct 15
Last Quarter

Today's Extremes

State Highs State Lows

Community

WunderPhotos

Upload Photos

1,754,529 photos uploaded!

Nearby

Air Quality

  Air Quality AQ Index Pollutant
Yesterday Good
OZONE

Snow Depth

Station Depth Elevation
Tahoe City Cross 0 in 6750 ft
Hagan's Meadow 0 in 8000 ft
Leavitt Lake 0 in 9400 ft
Summit Meadow 0 in 9122 ft
Spratt Creek 0 in 6200 ft

Earthquake Activity

City Distance Mag. Time & Date
The Geysers, California 42 miles 2.5 11:29 PM PDT
2014-09-17
Cobb, California 41 miles 2.7 1:23 PM PDT
2014-09-16
Minimum magnitude displayed is 2.5.

Coastal Water Temperatures

Place Temperature
No Stations Reporting

Nearby Weather Stations